sensor_id;sensor_type;location;lat;lon;timestamp;temperature;humidity
6377;DHT22;3221;48.858;10.128;2023-02-28T00:01:05;-2.30;99.90
6377;DHT22;3221;48.858;10.128;2023-02-28T00:03:32;-2.30;99.90
6377;DHT22;3221;48.858;10.128;2023-02-28T00:06:05;-2.30;99.90
6377;DHT22;3221;48.858;10.128;2023-02-28T00:08:33;-2.30;99.90
6377;DHT22;3221;48.858;10.128;2023-02-28T00:11:05;-2.20;99.90
6377;DHT22;3221;48.858;10.128;2023-02-28T00:13:35;-2.30;99.90
6377;DHT22;3221;48.858;10.128;2023-02-28T00:16:05;-2.30;99.90
6377;DHT22;3221;48.858;10.128;2023-02-28T00:18:32;-2.30;99.90
6377;DHT22;3221;48.858;10.128;2023-02-28T00:20:59;-2.30;99.90
6377;DHT22;3221;48.858;10.128;2023-02-28T00:23:26;-2.30;99.90
6377;DHT22;3221;48.858;10.128;2023-02-28T00:25:53;-2.20;99.90
6377;DHT22;3221;48.858;10.128;2023-02-28T00:28:21;-2.30;99.90
6377;DHT22;3221;48.858;10.128;2023-02-28T00:30:48;-2.40;99.90
6377;DHT22;3221;48.858;10.128;2023-02-28T00:33:15;-2.30;99.90
6377;DHT22;3221;48.858;10.128;2023-02-28T00:35:41;-2.30;99.90
6377;DHT22;3221;48.858;10.128;2023-02-28T00:38:08;-2.20;99.90
6377;DHT22;3221;48.858;10.128;2023-02-28T00:40:35;-2.20;99.90
6377;DHT22;3221;48.858;10.128;2023-02-28T00:43:02;-2.20;99.90
6377;DHT22;3221;48.858;10.128;2023-02-28T00:45:30;-2.30;99.90
6377;DHT22;3221;48.858;10.128;2023-02-28T00:47:57;-2.20;99.90
6377;DHT22;3221;48.858;10.128;2023-02-28T00:50:24;-2.30;99.90
6377;DHT22;3221;48.858;10.128;2023-02-28T00:52:51;-2.30;99.90
6377;DHT22;3221;48.858;10.128;2023-02-28T00:55:19;-2.40;99.90
6377;DHT22;3221;48.858;10.128;2023-02-28T00:57:47;-2.30;99.90
6377;DHT22;3221;48.858;10.128;2023-02-28T01:00:14;-2.30;99.90
6377;DHT22;3221;48.858;10.128;2023-02-28T01:02:42;-2.30;99.90
6377;DHT22;3221;48.858;10.128;2023-02-28T01:05:08;-2.40;99.90
6377;DHT22;3221;48.858;10.128;2023-02-28T01:07:35;-2.50;99.90
6377;DHT22;3221;48.858;10.128;2023-02-28T01:10:02;-2.40;99.90
6377;DHT22;3221;48.858;10.128;2023-02-28T01:12:29;-2.50;99.90
6377;DHT22;3221;48.858;10.128;2023-02-28T01:14:56;-2.60;99.90
6377;DHT22;3221;48.858;10.128;2023-02-28T01:17:23;-2.50;99.90
6377;DHT22;3221;48.858;10.128;2023-02-28T01:19:54;-2.50;99.90
6377;DHT22;3221;48.858;10.128;2023-02-28T01:22:24;-2.50;99.90
6377;DHT22;3221;48.858;10.128;2023-02-28T01:24:51;-2.60;99.90
6377;DHT22;3221;48.858;10.128;2023-02-28T01:27:18;-2.50;99.90
6377;DHT22;3221;48.858;10.128;2023-02-28T01:29:44;-2.50;99.90
6377;DHT22;3221;48.858;10.128;2023-02-28T01:32:11;-2.50;99.90
6377;DHT22;3221;48.858;10.128;2023-02-28T01:34:38;-2.40;99.90
6377;DHT22;3221;48.858;10.128;2023-02-28T01:37:05;-2.50;99.90
6377;DHT22;3221;48.858;10.128;2023-02-28T01:39:32;-2.50;99.90
6377;DHT22;3221;48.858;10.128;2023-02-28T01:41:58;-2.60;99.90
6377;DHT22;3221;48.858;10.128;2023-02-28T01:47:48;-2.60;99.90
6377;DHT22;3221;48.858;10.128;2023-02-28T01:50:23;-2.60;99.90
6377;DHT22;3221;48.858;10.128;2023-02-28T01:52:52;-2.70;99.90
6377;DHT22;3221;48.858;10.128;2023-02-28T01:55:23;-2.60;99.90
6377;DHT22;3221;48.858;10.128;2023-02-28T01:57:59;-2.60;99.90
6377;DHT22;3221;48.858;10.128;2023-02-28T02:00:27;-2.60;99.90
6377;DHT22;3221;48.858;10.128;2023-02-28T02:02:58;-2.60;99.90
6377;DHT22;3221;48.858;10.128;2023-02-28T02:05:28;-2.60;99.90
6377;DHT22;3221;48.858;10.128;2023-02-28T02:08:03;-2.60;99.90
6377;DHT22;3221;48.858;10.128;2023-02-28T02:10:39;-2.60;99.90
6377;DHT22;3221;48.858;10.128;2023-02-28T02:27:25;-2.80;99.90
6377;DHT22;3221;48.858;10.128;2023-02-28T02:33:06;-2.80;99.90
6377;DHT22;3221;48.858;10.128;2023-02-28T02:41:17;-2.80;99.90
6377;DHT22;3221;48.858;10.128;2023-02-28T02:43:52;-2.80;99.90
6377;DHT22;3221;48.858;10.128;2023-02-28T02:49:00;-3.00;99.90
6377;DHT22;3221;48.858;10.128;2023-02-28T02:51:31;-2.80;99.90
6377;DHT22;3221;48.858;10.128;2023-02-28T02:54:09;-2.70;99.90
6377;DHT22;3221;48.858;10.128;2023-02-28T02:56:41;-2.80;99.90
6377;DHT22;3221;48.858;10.128;2023-02-28T02:59:12;-2.90;99.90
6377;DHT22;3221;48.858;10.128;2023-02-28T03:01:41;-2.80;99.90
6377;DHT22;3221;48.858;10.128;2023-02-28T03:04:14;-2.90;99.90
6377;DHT22;3221;48.858;10.128;2023-02-28T03:06:42;-2.90;99.90
6377;DHT22;3221;48.858;10.128;2023-02-28T03:09:09;-2.90;99.90
6377;DHT22;3221;48.858;10.128;2023-02-28T03:11:38;-2.80;99.90
6377;DHT22;3221;48.858;10.128;2023-02-28T03:22:43;-2.70;99.90
6377;DHT22;3221;48.858;10.128;2023-02-28T03:25:59;-2.80;99.90
6377;DHT22;3221;48.858;10.128;2023-02-28T03:28:11;-2.80;99.90
6377;DHT22;3221;48.858;10.128;2023-02-28T03:33:28;-2.70;99.90
6377;DHT22;3221;48.858;10.128;2023-02-28T03:35:59;-2.80;99.90
6377;DHT22;3221;48.858;10.128;2023-02-28T03:38:37;-2.90;99.90
6377;DHT22;3221;48.858;10.128;2023-02-28T03:41:20;-2.90;99.90
6377;DHT22;3221;48.858;10.128;2023-02-28T03:43:56;-2.90;99.90
6377;DHT22;3221;48.858;10.128;2023-02-28T03:46:26;-2.80;99.90
6377;DHT22;3221;48.858;10.128;2023-02-28T03:51:35;-2.70;99.90
6377;DHT22;3221;48.858;10.128;2023-02-28T03:54:07;-2.70;99.90
6377;DHT22;3221;48.858;10.128;2023-02-28T03:56:45;-2.80;99.90
6377;DHT22;3221;48.858;10.128;2023-02-28T03:59:42;-2.80;99.90
6377;DHT22;3221;48.858;10.128;2023-02-28T04:02:10;-2.90;99.90
6377;DHT22;3221;48.858;10.128;2023-02-28T04:04:37;-2.80;99.90
6377;DHT22;3221;48.858;10.128;2023-02-28T04:07:09;-2.70;99.90
6377;DHT22;3221;48.858;10.128;2023-02-28T04:09:37;-2.70;99.90
6377;DHT22;3221;48.858;10.128;2023-02-28T04:12:04;-2.60;99.90
6377;DHT22;3221;48.858;10.128;2023-02-28T04:14:31;-2.80;99.90
6377;DHT22;3221;48.858;10.128;2023-02-28T04:16:58;-2.90;99.90
6377;DHT22;3221;48.858;10.128;2023-02-28T04:19:25;-2.90;99.90
6377;DHT22;3221;48.858;10.128;2023-02-28T04:21:53;-2.90;99.90
6377;DHT22;3221;48.858;10.128;2023-02-28T04:24:22;-2.80;99.90
6377;DHT22;3221;48.858;10.128;2023-02-28T04:26:51;-2.70;99.90
6377;DHT22;3221;48.858;10.128;2023-02-28T04:29:27;-2.70;99.90
6377;DHT22;3221;48.858;10.128;2023-02-28T04:31:55;-2.60;99.90
6377;DHT22;3221;48.858;10.128;2023-02-28T04:34:29;-2.60;99.90
6377;DHT22;3221;48.858;10.128;2023-02-28T04:36:57;-2.60;99.90
6377;DHT22;3221;48.858;10.128;2023-02-28T04:39:40;-2.70;99.90
6377;DHT22;3221;48.858;10.128;2023-02-28T04:42:09;-2.70;99.90
6377;DHT22;3221;48.858;10.128;2023-02-28T04:44:36;-2.60;99.90
6377;DHT22;3221;48.858;10.128;2023-02-28T04:47:03;-2.70;99.90
6377;DHT22;3221;48.858;10.128;2023-02-28T04:49:30;-2.80;99.90
6377;DHT22;3221;48.858;10.128;2023-02-28T04:51:56;-2.80;99.90
6377;DHT22;3221;48.858;10.128;2023-02-28T04:54:23;-2.80;99.90
6377;DHT22;3221;48.858;10.128;2023-02-28T04:56:50;-2.80;99.90
6377;DHT22;3221;48.858;10.128;2023-02-28T04:59:17;-2.90;99.90
6377;DHT22;3221;48.858;10.128;2023-02-28T05:01:48;-2.90;99.90
6377;DHT22;3221;48.858;10.128;2023-02-28T05:04:15;-2.90;99.90
6377;DHT22;3221;48.858;10.128;2023-02-28T05:06:42;-3.00;99.90
6377;DHT22;3221;48.858;10.128;2023-02-28T05:09:09;-3.00;99.90
6377;DHT22;3221;48.858;10.128;2023-02-28T05:11:39;-3.00;99.90
6377;DHT22;3221;48.858;10.128;2023-02-28T05:14:12;-2.80;99.90
6377;DHT22;3221;48.858;10.128;2023-02-28T05:16:39;-2.80;99.90
6377;DHT22;3221;48.858;10.128;2023-02-28T05:19:07;-2.70;99.90
6377;DHT22;3221;48.858;10.128;2023-02-28T05:21:36;-2.80;99.90
6377;DHT22;3221;48.858;10.128;2023-02-28T05:24:06;-2.70;99.90
6377;DHT22;3221;48.858;10.128;2023-02-28T05:26:41;-2.60;99.90
6377;DHT22;3221;48.858;10.128;2023-02-28T05:29:08;-2.60;99.90
6377;DHT22;3221;48.858;10.128;2023-02-28T05:31:36;-2.60;99.90
6377;DHT22;3221;48.858;10.128;2023-02-28T05:34:03;-2.70;99.90
6377;DHT22;3221;48.858;10.128;2023-02-28T05:36:33;-2.80;99.90
6377;DHT22;3221;48.858;10.128;2023-02-28T05:39:00;-2.70;99.90
6377;DHT22;3221;48.858;10.128;2023-02-28T05:41:26;-2.70;99.90
6377;DHT22;3221;48.858;10.128;2023-02-28T05:43:54;-2.70;99.90
6377;DHT22;3221;48.858;10.128;2023-02-28T05:46:21;-2.80;99.90
6377;DHT22;3221;48.858;10.128;2023-02-28T05:48:48;-2.80;99.90
6377;DHT22;3221;48.858;10.128;2023-02-28T05:51:16;-2.90;99.90
6377;DHT22;3221;48.858;10.128;2023-02-28T05:53:43;-2.80;99.90
6377;DHT22;3221;48.858;10.128;2023-02-28T05:56:10;-2.80;99.90
6377;DHT22;3221;48.858;10.128;2023-02-28T05:58:37;-2.80;99.90
6377;DHT22;3221;48.858;10.128;2023-02-28T06:04:01;-2.90;99.90
6377;DHT22;3221;48.858;10.128;2023-02-28T06:06:28;-2.80;99.90
6377;DHT22;3221;48.858;10.128;2023-02-28T06:08:56;-2.90;99.90
6377;DHT22;3221;48.858;10.128;2023-02-28T06:11:23;-2.70;99.90
6377;DHT22;3221;48.858;10.128;2023-02-28T06:13:58;-2.80;99.90
6377;DHT22;3221;48.858;10.128;2023-02-28T06:16:30;-2.80;99.90
6377;DHT22;3221;48.858;10.128;2023-02-28T06:18:59;-2.70;99.90
6377;DHT22;3221;48.858;10.128;2023-02-28T06:21:26;-2.70;99.90
6377;DHT22;3221;48.858;10.128;2023-02-28T06:23:56;-2.80;99.90
6377;DHT22;3221;48.858;10.128;2023-02-28T06:26:23;-2.80;99.90
6377;DHT22;3221;48.858;10.128;2023-02-28T06:28:50;-2.80;99.90
6377;DHT22;3221;48.858;10.128;2023-02-28T06:31:17;-2.80;99.90
6377;DHT22;3221;48.858;10.128;2023-02-28T06:33:45;-2.80;99.90
6377;DHT22;3221;48.858;10.128;2023-02-28T06:36:13;-2.70;99.90
6377;DHT22;3221;48.858;10.128;2023-02-28T06:38:40;-2.70;99.90
6377;DHT22;3221;48.858;10.128;2023-02-28T06:41:08;-2.70;99.90
6377;DHT22;3221;48.858;10.128;2023-02-28T06:43:38;-2.70;99.90
6377;DHT22;3221;48.858;10.128;2023-02-28T06:46:07;-2.80;99.90
6377;DHT22;3221;48.858;10.128;2023-02-28T06:48:34;-2.90;99.90
6377;DHT22;3221;48.858;10.128;2023-02-28T06:51:07;-2.80;99.90
6377;DHT22;3221;48.858;10.128;2023-02-28T06:53:34;-2.80;99.90
6377;DHT22;3221;48.858;10.128;2023-02-28T06:56:09;-2.90;99.90
6377;DHT22;3221;48.858;10.128;2023-02-28T06:58:37;-2.90;99.90
6377;DHT22;3221;48.858;10.128;2023-02-28T07:01:05;-2.90;99.90
6377;DHT22;3221;48.858;10.128;2023-02-28T07:03:32;-3.10;99.90
6377;DHT22;3221;48.858;10.128;2023-02-28T07:06:00;-3.10;99.90
6377;DHT22;3221;48.858;10.128;2023-02-28T07:08:28;-3.00;99.90
6377;DHT22;3221;48.858;10.128;2023-02-28T07:10:55;-3.00;99.90
6377;DHT22;3221;48.858;10.128;2023-02-28T07:13:23;-3.00;99.90
6377;DHT22;3221;48.858;10.128;2023-02-28T07:15:58;-2.90;99.90
6377;DHT22;3221;48.858;10.128;2023-02-28T07:18:25;-3.00;99.90
6377;DHT22;3221;48.858;10.128;2023-02-28T07:20:52;-3.00;99.90
6377;DHT22;3221;48.858;10.128;2023-02-28T07:23:19;-3.00;99.90
6377;DHT22;3221;48.858;10.128;2023-02-28T07:25:46;-2.80;99.90
6377;DHT22;3221;48.858;10.128;2023-02-28T07:28:13;-2.90;99.90
6377;DHT22;3221;48.858;10.128;2023-02-28T07:30:41;-2.80;99.90
6377;DHT22;3221;48.858;10.128;2023-02-28T07:33:08;-2.70;99.90
6377;DHT22;3221;48.858;10.128;2023-02-28T07:35:35;-2.80;99.90
6377;DHT22;3221;48.858;10.128;2023-02-28T07:38:02;-2.80;99.90
6377;DHT22;3221;48.858;10.128;2023-02-28T07:40:29;-2.80;99.90
6377;DHT22;3221;48.858;10.128;2023-02-28T07:42:56;-2.80;99.90
6377;DHT22;3221;48.858;10.128;2023-02-28T07:45:25;-2.90;99.90
6377;DHT22;3221;48.858;10.128;2023-02-28T07:47:52;-2.80;99.90
6377;DHT22;3221;48.858;10.128;2023-02-28T07:50:19;-2.70;99.90
6377;DHT22;3221;48.858;10.128;2023-02-28T07:52:46;-2.80;99.90
6377;DHT22;3221;48.858;10.128;2023-02-28T07:55:13;-2.80;99.90
6377;DHT22;3221;48.858;10.128;2023-02-28T07:57:40;-2.80;99.90
6377;DHT22;3221;48.858;10.128;2023-02-28T08:00:10;-2.80;99.90
6377;DHT22;3221;48.858;10.128;2023-02-28T08:02:39;-2.70;99.90
6377;DHT22;3221;48.858;10.128;2023-02-28T08:05:07;-2.70;99.90
6377;DHT22;3221;48.858;10.128;2023-02-28T08:07:34;-2.70;99.90
6377;DHT22;3221;48.858;10.128;2023-02-28T08:10:01;-2.80;99.90
6377;DHT22;3221;48.858;10.128;2023-02-28T08:12:28;-2.70;99.90
6377;DHT22;3221;48.858;10.128;2023-02-28T08:14:54;-2.40;99.90
6377;DHT22;3221;48.858;10.128;2023-02-28T08:17:21;-2.50;99.90
6377;DHT22;3221;48.858;10.128;2023-02-28T08:19:48;-2.50;99.90
6377;DHT22;3221;48.858;10.128;2023-02-28T08:22:15;-2.20;99.90
6377;DHT22;3221;48.858;10.128;2023-02-28T08:24:42;-2.30;99.90
6377;DHT22;3221;48.858;10.128;2023-02-28T08:27:10;-2.40;99.90
6377;DHT22;3221;48.858;10.128;2023-02-28T08:29:40;-2.20;99.90
6377;DHT22;3221;48.858;10.128;2023-02-28T08:32:07;-2.20;99.90
6377;DHT22;3221;48.858;10.128;2023-02-28T08:34:46;-2.10;99.90
6377;DHT22;3221;48.858;10.128;2023-02-28T08:37:13;-2.00;99.90
6377;DHT22;3221;48.858;10.128;2023-02-28T08:39:40;-2.10;99.90
6377;DHT22;3221;48.858;10.128;2023-02-28T08:42:07;-2.00;99.90
6377;DHT22;3221;48.858;10.128;2023-02-28T08:44:34;-2.00;99.90
6377;DHT22;3221;48.858;10.128;2023-02-28T08:47:00;-1.90;99.90
6377;DHT22;3221;48.858;10.128;2023-02-28T08:49:27;-1.80;99.90
6377;DHT22;3221;48.858;10.128;2023-02-28T08:51:55;-1.70;99.90
6377;DHT22;3221;48.858;10.128;2023-02-28T08:54:24;-1.70;99.90
6377;DHT22;3221;48.858;10.128;2023-02-28T08:56:51;-1.80;99.90
6377;DHT22;3221;48.858;10.128;2023-02-28T08:59:17;-1.60;99.90
6377;DHT22;3221;48.858;10.128;2023-02-28T09:01:44;-1.60;99.90
6377;DHT22;3221;48.858;10.128;2023-02-28T09:04:11;-1.50;99.90
6377;DHT22;3221;48.858;10.128;2023-02-28T09:06:42;-1.50;99.90
6377;DHT22;3221;48.858;10.128;2023-02-28T09:09:10;-1.60;99.90
6377;DHT22;3221;48.858;10.128;2023-02-28T09:11:37;-1.60;99.90
6377;DHT22;3221;48.858;10.128;2023-02-28T09:14:04;-1.60;99.90
6377;DHT22;3221;48.858;10.128;2023-02-28T09:16:32;-1.50;99.90
6377;DHT22;3221;48.858;10.128;2023-02-28T09:19:00;-1.40;99.90
6377;DHT22;3221;48.858;10.128;2023-02-28T09:21:27;-1.40;99.90
6377;DHT22;3221;48.858;10.128;2023-02-28T09:23:54;-1.30;99.90
6377;DHT22;3221;48.858;10.128;2023-02-28T09:26:24;-1.10;99.90
6377;DHT22;3221;48.858;10.128;2023-02-28T09:28:51;-1.00;99.90
6377;DHT22;3221;48.858;10.128;2023-02-28T09:31:25;-0.90;99.90
6377;DHT22;3221;48.858;10.128;2023-02-28T09:33:53;-0.80;99.90
6377;DHT22;3221;48.858;10.128;2023-02-28T09:36:22;-0.90;99.90
6377;DHT22;3221;48.858;10.128;2023-02-28T09:38:57;-0.90;99.90
6377;DHT22;3221;48.858;10.128;2023-02-28T09:41:25;-0.90;99.90
6377;DHT22;3221;48.858;10.128;2023-02-28T09:43:57;-0.90;99.90
6377;DHT22;3221;48.858;10.128;2023-02-28T09:46:43;-0.80;99.90
6377;DHT22;3221;48.858;10.128;2023-02-28T09:49:17;-0.70;99.90
6377;DHT22;3221;48.858;10.128;2023-02-28T09:52:30;-0.60;99.90
6377;DHT22;3221;48.858;10.128;2023-02-28T09:54:37;-0.70;99.90
6377;DHT22;3221;48.858;10.128;2023-02-28T10:04:54;-0.60;99.90
6377;DHT22;3221;48.858;10.128;2023-02-28T10:10:26;-0.10;99.90
6377;DHT22;3221;48.858;10.128;2023-02-28T10:12:56;-0.20;99.90
6377;DHT22;3221;48.858;10.128;2023-02-28T10:15:26;-0.30;99.90
6377;DHT22;3221;48.858;10.128;2023-02-28T10:17:59;-0.30;99.90
6377;DHT22;3221;48.858;10.128;2023-02-28T10:20:38;-0.40;99.90
6377;DHT22;3221;48.858;10.128;2023-02-28T10:23:26;-0.30;99.90
6377;DHT22;3221;48.858;10.128;2023-02-28T10:26:05;-0.30;99.90
6377;DHT22;3221;48.858;10.128;2023-02-28T10:28:34;-0.30;99.90
6377;DHT22;3221;48.858;10.128;2023-02-28T10:31:02;-0.40;99.90
6377;DHT22;3221;48.858;10.128;2023-02-28T10:33:32;-0.60;99.90
6377;DHT22;3221;48.858;10.128;2023-02-28T10:35:59;-0.50;99.90
6377;DHT22;3221;48.858;10.128;2023-02-28T10:38:37;-0.60;99.90
6377;DHT22;3221;48.858;10.128;2023-02-28T10:41:11;-0.60;99.90
6377;DHT22;3221;48.858;10.128;2023-02-28T10:43:40;-0.50;99.90
6377;DHT22;3221;48.858;10.128;2023-02-28T10:49:05;-0.50;99.90
6377;DHT22;3221;48.858;10.128;2023-02-28T10:51:39;-0.50;99.90
6377;DHT22;3221;48.858;10.128;2023-02-28T10:54:15;-0.30;99.90
6377;DHT22;3221;48.858;10.128;2023-02-28T10:56:43;-0.30;99.90
6377;DHT22;3221;48.858;10.128;2023-02-28T10:59:30;-0.30;99.90
6377;DHT22;3221;48.858;10.128;2023-02-28T11:01:57;-0.30;99.90
6377;DHT22;3221;48.858;10.128;2023-02-28T11:07:01;-0.20;99.90
6377;DHT22;3221;48.858;10.128;2023-02-28T11:09:34;-0.10;99.90
6377;DHT22;3221;48.858;10.128;2023-02-28T11:12:04;-0.10;99.90
6377;DHT22;3221;48.858;10.128;2023-02-28T11:14:37;0.20;99.90
6377;DHT22;3221;48.858;10.128;2023-02-28T11:17:21;0.20;99.90
6377;DHT22;3221;48.858;10.128;2023-02-28T11:19:52;0.10;99.90
6377;DHT22;3221;48.858;10.128;2023-02-28T11:22:23;0.20;99.90
6377;DHT22;3221;48.858;10.128;2023-02-28T11:24:53;0.10;99.90
6377;DHT22;3221;48.858;10.128;2023-02-28T11:30:00;0.70;99.90
6377;DHT22;3221;48.858;10.128;2023-02-28T11:32:29;1.00;99.90
6377;DHT22;3221;48.858;10.128;2023-02-28T11:35:40;1.30;99.90
6377;DHT22;3221;48.858;10.128;2023-02-28T11:38:11;1.30;99.90
6377;DHT22;3221;48.858;10.128;2023-02-28T11:40:48;1.30;99.90
6377;DHT22;3221;48.858;10.128;2023-02-28T11:46:37;1.20;99.90
6377;DHT22;3221;48.858;10.128;2023-02-28T11:55:11;1.00;99.90
6377;DHT22;3221;48.858;10.128;2023-02-28T11:57:52;1.30;99.90
6377;DHT22;3221;48.858;10.128;2023-02-28T12:03:31;1.30;99.90
6377;DHT22;3221;48.858;10.128;2023-02-28T12:11:53;1.80;99.90
6377;DHT22;3221;48.858;10.128;2023-02-28T12:26:05;1.90;99.90
6377;DHT22;3221;48.858;10.128;2023-02-28T12:28:38;1.90;99.90
6377;DHT22;3221;48.858;10.128;2023-02-28T12:31:20;1.80;99.90
6377;DHT22;3221;48.858;10.128;2023-02-28T12:33:53;2.00;99.90
6377;DHT22;3221;48.858;10.128;2023-02-28T12:36:20;2.20;99.90
6377;DHT22;3221;48.858;10.128;2023-02-28T12:39:08;2.50;99.90
6377;DHT22;3221;48.858;10.128;2023-02-28T12:41:42;2.70;99.90
6377;DHT22;3221;48.858;10.128;2023-02-28T12:44:19;2.60;99.90
6377;DHT22;3221;48.858;10.128;2023-02-28T12:46:52;2.60;99.90
6377;DHT22;3221;48.858;10.128;2023-02-28T12:49:30;2.60;99.90
6377;DHT22;3221;48.858;10.128;2023-02-28T12:51:59;2.50;99.90
6377;DHT22;3221;48.858;10.128;2023-02-28T12:54:41;2.30;99.90
6377;DHT22;3221;48.858;10.128;2023-02-28T12:57:43;2.30;99.90
6377;DHT22;3221;48.858;10.128;2023-02-28T13:00:18;2.30;99.90
6377;DHT22;3221;48.858;10.128;2023-02-28T13:03:02;2.20;99.90
6377;DHT22;3221;48.858;10.128;2023-02-28T13:05:52;2.30;99.90
6377;DHT22;3221;48.858;10.128;2023-02-28T13:11:25;2.40;99.90
6377;DHT22;3221;48.858;10.128;2023-02-28T13:14:03;2.40;99.90
6377;DHT22;3221;48.858;10.128;2023-02-28T13:19:25;2.60;99.90
6377;DHT22;3221;48.858;10.128;2023-02-28T13:21:53;2.70;99.90
6377;DHT22;3221;48.858;10.128;2023-02-28T13:24:41;2.70;99.90
6377;DHT22;3221;48.858;10.128;2023-02-28T13:29:45;2.80;99.90
6377;DHT22;3221;48.858;10.128;2023-02-28T13:42:49;3.10;99.90
6377;DHT22;3221;48.858;10.128;2023-02-28T13:45:23;2.90;99.90
6377;DHT22;3221;48.858;10.128;2023-02-28T13:48:04;3.10;99.90
6377;DHT22;3221;48.858;10.128;2023-02-28T13:50:37;3.10;99.90
6377;DHT22;3221;48.858;10.128;2023-02-28T13:56:03;3.20;99.90
6377;DHT22;3221;48.858;10.128;2023-02-28T13:59:01;3.20;99.90
6377;DHT22;3221;48.858;10.128;2023-02-28T14:01:52;3.30;99.90
6377;DHT22;3221;48.858;10.128;2023-02-28T14:06:54;3.30;99.90
6377;DHT22;3221;48.858;10.128;2023-02-28T14:09:32;3.30;99.90
6377;DHT22;3221;48.858;10.128;2023-02-28T14:15:39;3.30;99.90
6377;DHT22;3221;48.858;10.128;2023-02-28T14:18:27;3.30;99.90
6377;DHT22;3221;48.858;10.128;2023-02-28T14:20:59;3.40;99.90
6377;DHT22;3221;48.858;10.128;2023-02-28T14:23:56;3.60;99.90
6377;DHT22;3221;48.858;10.128;2023-02-28T14:31:37;3.70;99.90
6377;DHT22;3221;48.858;10.128;2023-02-28T14:34:58;3.60;99.90
6377;DHT22;3221;48.858;10.128;2023-02-28T14:37:28;3.50;99.90
6377;DHT22;3221;48.858;10.128;2023-02-28T14:39:57;3.40;99.90
6377;DHT22;3221;48.858;10.128;2023-02-28T14:42:36;3.40;99.90
6377;DHT22;3221;48.858;10.128;2023-02-28T14:45:20;3.40;99.90
6377;DHT22;3221;48.858;10.128;2023-02-28T14:47:49;3.50;99.90
6377;DHT22;3221;48.858;10.128;2023-02-28T14:50:22;3.60;99.90
6377;DHT22;3221;48.858;10.128;2023-02-28T14:52:54;3.70;99.90
6377;DHT22;3221;48.858;10.128;2023-02-28T14:55:28;3.70;99.90
6377;DHT22;3221;48.858;10.128;2023-02-28T14:58:01;3.70;99.90
6377;DHT22;3221;48.858;10.128;2023-02-28T15:00:34;3.60;99.90
6377;DHT22;3221;48.858;10.128;2023-02-28T15:03:24;3.60;99.90
6377;DHT22;3221;48.858;10.128;2023-02-28T15:06:04;3.60;99.90
6377;DHT22;3221;48.858;10.128;2023-02-28T15:08:32;3.70;99.90
6377;DHT22;3221;48.858;10.128;2023-02-28T15:11:06;3.70;99.90
6377;DHT22;3221;48.858;10.128;2023-02-28T15:13:41;3.60;99.90
6377;DHT22;3221;48.858;10.128;2023-02-28T15:16:57;3.60;99.90
6377;DHT22;3221;48.858;10.128;2023-02-28T15:19:06;3.60;99.90
6377;DHT22;3221;48.858;10.128;2023-02-28T15:21:37;3.70;99.90
6377;DHT22;3221;48.858;10.128;2023-02-28T15:24:22;3.60;99.90
6377;DHT22;3221;48.858;10.128;2023-02-28T15:26:57;3.70;99.90
6377;DHT22;3221;48.858;10.128;2023-02-28T15:29:27;3.80;99.90
6377;DHT22;3221;48.858;10.128;2023-02-28T15:32:01;3.80;99.90
6377;DHT22;3221;48.858;10.128;2023-02-28T15:34:41;3.80;99.90
6377;DHT22;3221;48.858;10.128;2023-02-28T15:40:17;3.60;99.90
6377;DHT22;3221;48.858;10.128;2023-02-28T15:43:14;3.60;99.90
6377;DHT22;3221;48.858;10.128;2023-02-28T15:46:28;3.50;99.90
6377;DHT22;3221;48.858;10.128;2023-02-28T15:48:54;3.40;99.90
6377;DHT22;3221;48.858;10.128;2023-02-28T15:51:36;3.50;99.90
6377;DHT22;3221;48.858;10.128;2023-02-28T15:54:12;3.40;99.90
6377;DHT22;3221;48.858;10.128;2023-02-28T15:56:46;3.30;99.90
6377;DHT22;3221;48.858;10.128;2023-02-28T15:59:18;3.30;99.90
6377;DHT22;3221;48.858;10.128;2023-02-28T16:01:46;3.10;99.90
6377;DHT22;3221;48.858;10.128;2023-02-28T16:04:18;3.00;99.90
6377;DHT22;3221;48.858;10.128;2023-02-28T16:09:25;2.80;99.90
6377;DHT22;3221;48.858;10.128;2023-02-28T16:11:56;2.70;99.90
6377;DHT22;3221;48.858;10.128;2023-02-28T16:14:25;2.60;99.90
6377;DHT22;3221;48.858;10.128;2023-02-28T16:16:56;2.50;99.90
6377;DHT22;3221;48.858;10.128;2023-02-28T16:19:23;2.50;99.90
6377;DHT22;3221;48.858;10.128;2023-02-28T16:21:50;2.50;99.90
6377;DHT22;3221;48.858;10.128;2023-02-28T16:24:17;2.50;99.90
6377;DHT22;3221;48.858;10.128;2023-02-28T16:26:47;2.50;99.90
6377;DHT22;3221;48.858;10.128;2023-02-28T16:29:33;2.50;99.90
6377;DHT22;3221;48.858;10.128;2023-02-28T16:32:01;2.40;99.90
6377;DHT22;3221;48.858;10.128;2023-02-28T16:34:30;2.30;99.90
6377;DHT22;3221;48.858;10.128;2023-02-28T16:36:57;2.10;99.90
6377;DHT22;3221;48.858;10.128;2023-02-28T16:39:25;2.10;99.90
6377;DHT22;3221;48.858;10.128;2023-02-28T16:41:52;2.20;99.90
6377;DHT22;3221;48.858;10.128;2023-02-28T16:44:31;2.00;99.90
6377;DHT22;3221;48.858;10.128;2023-02-28T16:47:00;1.90;99.90
6377;DHT22;3221;48.858;10.128;2023-02-28T16:49:28;1.90;99.90
6377;DHT22;3221;48.858;10.128;2023-02-28T16:51:55;1.80;99.90
6377;DHT22;3221;48.858;10.128;2023-02-28T16:54:22;1.80;99.90
6377;DHT22;3221;48.858;10.128;2023-02-28T16:56:49;1.80;99.90
6377;DHT22;3221;48.858;10.128;2023-02-28T16:59:21;1.70;99.90
6377;DHT22;3221;48.858;10.128;2023-02-28T17:01:48;1.70;99.90
6377;DHT22;3221;48.858;10.128;2023-02-28T17:04:16;1.60;99.90
6377;DHT22;3221;48.858;10.128;2023-02-28T17:06:43;1.70;99.90
6377;DHT22;3221;48.858;10.128;2023-02-28T17:09:21;1.50;99.90
6377;DHT22;3221;48.858;10.128;2023-02-28T17:11:56;1.50;99.90
6377;DHT22;3221;48.858;10.128;2023-02-28T17:14:23;1.40;99.90
6377;DHT22;3221;48.858;10.128;2023-02-28T17:16:50;1.40;99.90
6377;DHT22;3221;48.858;10.128;2023-02-28T17:19:17;1.40;99.90
6377;DHT22;3221;48.858;10.128;2023-02-28T17:21:45;1.30;99.90
6377;DHT22;3221;48.858;10.128;2023-02-28T17:24:14;1.30;99.90
6377;DHT22;3221;48.858;10.128;2023-02-28T17:26:55;1.30;99.90
6377;DHT22;3221;48.858;10.128;2023-02-28T17:29:22;1.30;99.90
6377;DHT22;3221;48.858;10.128;2023-02-28T17:31:49;1.20;99.90
6377;DHT22;3221;48.858;10.128;2023-02-28T17:34:16;1.20;99.90
6377;DHT22;3221;48.858;10.128;2023-02-28T17:36:45;1.20;99.90
6377;DHT22;3221;48.858;10.128;2023-02-28T17:39:14;1.20;99.90
6377;DHT22;3221;48.858;10.128;2023-02-28T17:41:42;1.10;99.90
6377;DHT22;3221;48.858;10.128;2023-02-28T17:44:09;1.10;99.90
6377;DHT22;3221;48.858;10.128;2023-02-28T17:46:36;1.20;99.90
6377;DHT22;3221;48.858;10.128;2023-02-28T17:49:03;1.10;99.90
6377;DHT22;3221;48.858;10.128;2023-02-28T17:51:30;1.00;99.90
6377;DHT22;3221;48.858;10.128;2023-02-28T17:53:58;1.00;99.90
6377;DHT22;3221;48.858;10.128;2023-02-28T17:56:26;0.90;99.90
6377;DHT22;3221;48.858;10.128;2023-02-28T17:58:55;1.00;99.90
6377;DHT22;3221;48.858;10.128;2023-02-28T18:01:23;0.90;99.90
6377;DHT22;3221;48.858;10.128;2023-02-28T18:03:53;1.00;99.90
6377;DHT22;3221;48.858;10.128;2023-02-28T18:06:25;0.90;99.90
6377;DHT22;3221;48.858;10.128;2023-02-28T18:08:54;0.90;99.90
6377;DHT22;3221;48.858;10.128;2023-02-28T18:11:22;1.00;99.90
6377;DHT22;3221;48.858;10.128;2023-02-28T18:13:51;1.10;99.90
6377;DHT22;3221;48.858;10.128;2023-02-28T18:16:19;1.00;99.90
6377;DHT22;3221;48.858;10.128;2023-02-28T18:18:47;0.90;99.90
6377;DHT22;3221;48.858;10.128;2023-02-28T18:21:16;0.90;99.90
6377;DHT22;3221;48.858;10.128;2023-02-28T18:23:44;0.90;99.90
6377;DHT22;3221;48.858;10.128;2023-02-28T18:26:15;0.90;99.90
6377;DHT22;3221;48.858;10.128;2023-02-28T18:28:43;0.80;99.90
6377;DHT22;3221;48.858;10.128;2023-02-28T18:31:17;0.80;99.90